createdAt,value
2019-02-17T00:01:42.914Z,6.23
2019-02-17T00:04:12.527Z,6.34
2019-02-17T00:06:41.639Z,6.22
2019-02-17T00:09:14.878Z,5.94
2019-02-17T00:11:45.926Z,6.05
2019-02-17T00:14:17.045Z,5.91
2019-02-17T00:16:47.405Z,5.90
2019-02-17T00:19:21.417Z,6.11
2019-02-17T00:21:56.066Z,6.32
2019-02-17T00:24:25.549Z,6.58
2019-02-17T00:27:00.005Z,7.15
2019-02-17T00:29:29.152Z,8.10
2019-02-17T00:31:59.794Z,8.68
2019-02-17T00:34:30.558Z,8.87
2019-02-17T00:37:00.718Z,9.02
2019-02-17T00:39:38.763Z,8.88
2019-02-17T00:42:07.897Z,8.88
2019-02-17T00:44:37.023Z,9.00
2019-02-17T00:47:06.504Z,9.13
2019-02-17T00:49:35.810Z,8.86
2019-02-17T00:52:06.110Z,0.53
2019-02-17T00:54:35.202Z,8.44
2019-02-17T00:57:04.590Z,8.49
2019-02-17T00:59:36.848Z,8.04
2019-02-17T01:02:05.998Z,7.95
2019-02-17T01:04:36.784Z,7.86
2019-02-17T01:07:06.591Z,8.08
2019-02-17T01:09:38.369Z,7.68
2019-02-17T01:12:07.498Z,7.67
2019-02-17T01:14:38.076Z,7.50
2019-02-17T01:17:09.230Z,7.37
2019-02-17T01:19:38.548Z,6.89
2019-02-17T01:22:07.760Z,6.78
2019-02-17T01:24:40.612Z,6.67
2019-02-17T01:27:09.737Z,6.63
2019-02-17T01:29:40.570Z,6.78
2019-02-17T01:32:09.780Z,7.08
2019-02-17T01:34:38.943Z,6.95
2019-02-17T01:37:09.218Z,7.41
2019-02-17T01:39:55.577Z,7.15
2019-02-17T01:42:26.994Z,7.29
2019-02-17T01:44:56.116Z,7.56
2019-02-17T01:47:25.583Z,7.36
2019-02-17T01:49:58.069Z,7.58
2019-02-17T01:52:27.219Z,7.45
2019-02-17T01:54:56.366Z,7.81
2019-02-17T01:57:27.704Z,7.66
2019-02-17T01:59:59.289Z,7.48
2019-02-17T02:02:28.433Z,7.81
2019-02-17T02:04:57.579Z,7.28
2019-02-17T02:07:26.672Z,7.52
2019-02-17T02:09:56.125Z,7.31
2019-02-17T02:12:26.999Z,6.94
2019-02-17T02:15:01.023Z,7.49
2019-02-17T02:17:30.081Z,7.23
2019-02-17T02:20:02.442Z,7.64
2019-02-17T02:22:35.034Z,7.32
2019-02-17T02:25:04.440Z,7.00
2019-02-17T02:27:34.641Z,7.22
2019-02-17T02:30:04.160Z,7.04
2019-02-17T02:32:33.284Z,6.84
2019-02-17T02:35:04.180Z,6.87
2019-02-17T02:37:33.322Z,6.69
2019-02-17T02:40:02.408Z,6.63
2019-02-17T02:42:31.541Z,6.36
2019-02-17T02:45:00.719Z,6.45
2019-02-17T02:47:30.880Z,6.13
2019-02-17T02:50:06.681Z,5.97
2019-02-17T02:52:35.812Z,5.75
2019-02-17T02:55:05.209Z,6.06
2019-02-17T02:57:34.434Z,5.72
2019-02-17T03:00:03.653Z,5.64
2019-02-17T03:02:41.923Z,5.94
2019-02-17T03:05:11.535Z,5.98
2019-02-17T03:07:42.197Z,6.10
2019-02-17T03:10:12.380Z,6.11
2019-02-17T03:12:41.881Z,6.73
2019-02-17T03:15:11.242Z,6.93
2019-02-17T03:17:40.355Z,7.25
2019-02-17T03:20:12.432Z,-1.41
2019-02-17T03:22:42.731Z,7.90
2019-02-17T03:25:13.244Z,7.10
2019-02-17T03:27:42.776Z,7.04
2019-02-17T03:30:11.871Z,7.46
2019-02-17T03:32:40.993Z,7.79
2019-02-17T03:35:11.485Z,8.01
2019-02-17T03:37:45.906Z,7.42
2019-02-17T03:40:15.436Z,5.35
2019-02-17T03:42:47.302Z,7.38
2019-02-17T03:45:19.401Z,7.50
2019-02-17T03:47:55.719Z,8.25
2019-02-17T03:50:29.539Z,8.12
2019-02-17T03:53:01.080Z,7.75
2019-02-17T03:55:33.200Z,7.64
2019-02-17T03:58:02.579Z,7.70
2019-02-17T04:00:39.266Z,6.93
2019-02-17T04:03:13.218Z,6.16
2019-02-17T04:05:45.583Z,5.91
2019-02-17T04:08:14.684Z,5.82
2019-02-17T04:10:45.123Z,5.68
2019-02-17T04:13:14.165Z,5.70
2019-02-17T04:15:46.231Z,5.59
2019-02-17T04:18:15.359Z,5.90
2019-02-17T04:20:46.985Z,6.24
2019-02-17T04:23:16.149Z,5.99
2019-02-17T04:25:47.125Z,6.19
2019-02-17T04:28:17.688Z,6.21
2019-02-17T04:30:55.969Z,5.49
2019-02-17T04:33:28.208Z,5.37
2019-02-17T04:35:57.330Z,5.38
2019-02-17T04:38:26.417Z,5.30
2019-02-17T04:40:57.489Z,5.77
2019-02-17T04:43:26.578Z,5.53
2019-02-17T04:45:55.761Z,5.52
2019-02-17T04:48:25.891Z,5.62
2019-02-17T04:50:59.052Z,5.53
2019-02-17T04:53:28.227Z,3.33
2019-02-17T04:55:59.264Z,5.49
2019-02-17T04:58:29.868Z,5.69
2019-02-17T05:00:59.371Z,6.12
2019-02-17T05:03:32.161Z,6.23
2019-02-17T05:06:02.588Z,5.76
2019-02-17T05:08:31.829Z,5.82
2019-02-17T05:11:08.546Z,5.57
2019-02-17T05:13:39.530Z,5.44
2019-02-17T05:16:11.341Z,5.52
2019-02-17T05:18:40.413Z,5.35
2019-02-17T05:21:10.315Z,5.31
2019-02-17T05:23:39.483Z,5.46
2019-02-17T05:26:08.596Z,5.29
2019-02-17T05:28:37.691Z,5.33
2019-02-17T05:31:06.977Z,5.01
2019-02-17T05:33:37.182Z,5.22
2019-02-17T05:36:10.065Z,5.14
2019-02-17T05:38:45.405Z,5.62
2019-02-17T05:41:14.725Z,5.96
2019-02-17T05:43:43.925Z,5.76
2019-02-17T05:46:13.091Z,5.78
2019-02-17T05:48:42.313Z,5.59
2019-02-17T05:51:11.442Z,5.86
2019-02-17T05:53:41.762Z,5.93
2019-02-17T05:56:12.871Z,6.52
2019-02-17T05:58:42.053Z,6.87
2019-02-17T06:01:11.168Z,6.70
2019-02-17T06:03:43.484Z,6.85
2019-02-17T06:06:14.867Z,7.00
2019-02-17T06:08:46.244Z,6.81
2019-02-17T06:11:15.422Z,6.89
2019-02-17T06:13:52.707Z,6.60
2019-02-17T06:16:21.846Z,6.29
2019-02-17T06:18:50.957Z,6.22
2019-02-17T06:21:21.483Z,5.81
2019-02-17T06:23:55.651Z,6.30
2019-02-17T06:26:24.924Z,6.24
2019-02-17T06:28:57.325Z,5.66
2019-02-17T06:31:26.415Z,5.91
2019-02-17T06:33:55.540Z,5.79
2019-02-17T06:36:32.692Z,6.28
2019-02-17T06:39:04.542Z,6.66
2019-02-17T06:41:35.247Z,7.35
2019-02-17T06:44:04.735Z,7.25
2019-02-17T06:46:38.862Z,7.84
2019-02-17T06:49:09.137Z,7.04
2019-02-17T06:51:38.376Z,6.53
2019-02-17T06:54:10.475Z,6.40
2019-02-17T06:56:44.967Z,6.74
2019-02-17T06:59:15.291Z,6.60
2019-02-17T07:01:48.957Z,6.87
2019-02-17T07:04:19.524Z,6.50
2019-02-17T07:06:59.253Z,7.31
2019-02-17T07:09:28.403Z,7.12
2019-02-17T07:11:58.497Z,7.52
2019-02-17T07:14:27.591Z,6.28
2019-02-17T07:16:58.244Z,6.63
2019-02-17T07:19:30.291Z,6.55
2019-02-17T07:22:05.754Z,5.94
2019-02-17T07:24:36.519Z,5.90
2019-02-17T07:27:05.740Z,6.03
2019-02-17T07:29:34.836Z,5.83
2019-02-17T07:32:05.019Z,5.55
2019-02-17T07:34:40.136Z,5.47
2019-02-17T07:37:09.290Z,6.08
2019-02-17T07:39:39.902Z,5.66
2019-02-17T07:42:10.297Z,5.94
2019-02-17T07:44:43.544Z,5.64
2019-02-17T07:47:14.817Z,5.44
2019-02-17T07:49:53.090Z,5.72
2019-02-17T07:52:23.227Z,5.76
2019-02-17T07:54:52.341Z,5.96
2019-02-17T07:57:21.508Z,6.22
2019-02-17T07:59:50.595Z,5.88
2019-02-17T08:02:19.715Z,6.14
2019-02-17T08:04:50.404Z,5.99
2019-02-17T08:07:19.549Z,6.01
2019-02-17T08:09:48.646Z,6.26
2019-02-17T08:12:17.754Z,6.31
2019-02-17T08:14:48.008Z,6.69
2019-02-17T08:17:20.210Z,6.53
2019-02-17T08:19:52.218Z,6.88
2019-02-17T08:22:21.403Z,6.96
2019-02-17T08:24:50.958Z,6.79
2019-02-17T08:27:20.330Z,6.98
2019-02-17T08:29:50.642Z,7.04
2019-02-17T08:32:22.230Z,7.12
2019-02-17T08:34:53.355Z,7.25
2019-02-17T08:37:22.333Z,7.23
2019-02-17T08:39:51.513Z,7.87
2019-02-17T08:42:20.661Z,7.59
2019-02-17T08:44:51.731Z,8.02
2019-02-17T08:47:20.820Z,7.55
2019-02-17T08:49:50.032Z,7.55
2019-02-17T08:52:19.236Z,7.78
2019-02-17T08:54:52.934Z,8.10
2019-02-17T08:57:23.131Z,8.11
2019-02-17T08:59:56.835Z,8.04
2019-02-17T09:02:30.912Z,8.22
2019-02-17T09:05:00.323Z,8.55
2019-02-17T09:07:29.453Z,9.15
2019-02-17T09:09:58.692Z,8.79
2019-02-17T09:12:37.567Z,8.54
2019-02-17T09:15:08.281Z,9.09
2019-02-17T09:17:46.788Z,9.28
2019-02-17T09:20:15.933Z,9.91
2019-02-17T09:22:45.196Z,10.22
2019-02-17T09:25:14.588Z,10.68
2019-02-17T09:27:43.751Z,10.84
2019-02-17T09:30:18.540Z,10.96
2019-02-17T09:32:47.988Z,11.16
2019-02-17T09:35:18.759Z,11.41
2019-02-17T09:37:47.872Z,11.81
2019-02-17T09:40:17.398Z,11.29
2019-02-17T09:42:51.062Z,11.34
2019-02-17T09:45:20.301Z,11.81
2019-02-17T09:47:49.459Z,12.20
2019-02-17T09:50:19.884Z,12.78
2019-02-17T09:52:52.187Z,13.18
2019-02-17T09:55:21.301Z,12.84
2019-02-17T09:57:50.440Z,13.20
2019-02-17T10:00:19.611Z,13.34
2019-02-17T10:02:49.462Z,12.69
2019-02-17T10:05:18.659Z,12.95
2019-02-17T10:07:48.563Z,13.46
2019-02-17T10:10:17.719Z,13.30
2019-02-17T10:12:47.228Z,13.78
2019-02-17T10:15:18.771Z,13.51
2019-02-17T10:17:47.912Z,13.68
2019-02-17T10:20:17.126Z,14.20
2019-02-17T10:22:47.334Z,13.95
2019-02-17T10:25:20.234Z,13.06
2019-02-17T10:27:49.390Z,13.74
2019-02-17T10:30:20.185Z,14.10
2019-02-17T10:32:51.588Z,14.39
2019-02-17T10:35:24.390Z,14.48
2019-02-17T10:37:53.875Z,13.94
2019-02-17T10:40:25.388Z,14.73
2019-02-17T10:42:54.867Z,15.06
2019-02-17T10:45:23.966Z,15.35
2019-02-17T10:47:53.324Z,15.52
2019-02-17T10:50:22.667Z,15.37
2019-02-17T10:52:51.782Z,15.36
2019-02-17T10:55:20.988Z,15.85
2019-02-17T10:57:50.281Z,16.09
2019-02-17T11:00:26.293Z,16.32
2019-02-17T11:02:55.441Z,15.59
2019-02-17T11:05:27.105Z,15.02
2019-02-17T11:07:58.181Z,15.96
2019-02-17T11:10:27.690Z,16.10
2019-02-17T11:13:00.080Z,16.60
2019-02-17T11:15:29.291Z,16.90
2019-02-17T11:17:59.363Z,17.15
2019-02-17T11:20:30.834Z,17.17
2019-02-17T11:23:11.763Z,16.94
2019-02-17T11:25:41.863Z,17.27
2019-02-17T11:28:18.550Z,16.84
2019-02-17T11:30:48.019Z,17.32
2019-02-17T11:33:20.650Z,17.29
2019-02-17T11:35:49.805Z,17.56
2019-02-17T11:38:18.955Z,17.53
2019-02-17T11:40:49.412Z,17.25
2019-02-17T11:43:21.022Z,17.15
2019-02-17T11:45:50.937Z,17.60
2019-02-17T11:48:20.179Z,17.46
2019-02-17T11:50:51.080Z,17.76
2019-02-17T11:53:20.276Z,17.73
2019-02-17T11:55:49.778Z,18.00
2019-02-17T11:58:24.052Z,18.43
2019-02-17T12:00:55.398Z,18.51
2019-02-17T12:03:24.569Z,19.04
2019-02-17T12:05:54.815Z,19.04
2019-02-17T12:08:25.366Z,19.02
2019-02-17T12:10:58.215Z,19.15
2019-02-17T12:13:28.202Z,19.10
2019-02-17T12:15:59.853Z,18.84
2019-02-17T12:18:29.299Z,19.39
2019-02-17T12:21:05.006Z,19.38
2019-02-17T12:23:41.107Z,19.54
2019-02-17T12:26:23.029Z,19.51
2019-02-17T12:29:01.301Z,19.53
2019-02-17T12:31:36.939Z,19.70
2019-02-17T12:34:07.325Z,19.95
2019-02-17T12:36:38.064Z,20.18
2019-02-17T12:39:15.191Z,20.04
2019-02-17T12:41:52.669Z,19.61
2019-02-17T12:44:25.756Z,19.83
2019-02-17T12:46:54.886Z,19.93
2019-02-17T12:49:26.125Z,20.01
2019-02-17T12:52:01.825Z,20.55
2019-02-17T12:54:31.768Z,20.37
2019-02-17T12:57:02.235Z,20.23
2019-02-17T12:59:33.355Z,20.29
2019-02-17T13:02:05.025Z,20.76
2019-02-17T13:04:38.693Z,20.75
2019-02-17T13:07:08.098Z,20.51
2019-02-17T13:09:37.353Z,20.74
2019-02-17T13:12:09.137Z,21.29
2019-02-17T13:14:42.054Z,21.54
2019-02-17T13:17:12.857Z,21.86
2019-02-17T13:19:44.463Z,22.37
2019-02-17T13:22:13.554Z,21.75
2019-02-17T13:24:42.758Z,22.20
2019-02-17T13:27:11.858Z,22.39
2019-02-17T13:29:42.175Z,21.76
2019-02-17T13:32:14.789Z,21.69
2019-02-17T13:34:44.231Z,21.28
2019-02-17T13:37:15.173Z,20.99
2019-02-17T13:39:44.458Z,20.73
2019-02-17T13:42:16.163Z,20.75
2019-02-17T13:44:45.271Z,20.65
2019-02-17T13:47:14.378Z,20.37
2019-02-17T13:49:43.915Z,20.31
2019-02-17T13:52:15.908Z,20.49
2019-02-17T13:54:48.132Z,20.31
2019-02-17T13:57:17.305Z,20.32
2019-02-17T13:59:46.464Z,20.34
2019-02-17T14:02:17.040Z,20.40
2019-02-17T14:04:48.942Z,20.32
2019-02-17T14:07:20.869Z,20.39
2019-02-17T14:09:50.671Z,20.49
2019-02-17T14:12:19.822Z,20.56
2019-02-17T14:14:49.230Z,20.46
2019-02-17T14:17:20.860Z,20.44
2019-02-17T14:19:49.979Z,20.46
2019-02-17T14:22:19.417Z,20.31
2019-02-17T14:24:48.630Z,20.10
2019-02-17T14:27:19.965Z,19.89
2019-02-17T14:29:49.406Z,20.27
2019-02-17T14:32:19.102Z,20.15
2019-02-17T14:34:48.315Z,20.08
2019-02-17T14:37:18.820Z,20.15
2019-02-17T14:39:49.048Z,20.15
2019-02-17T14:42:18.860Z,19.89
2019-02-17T14:44:55.123Z,19.90
2019-02-17T14:47:26.668Z,20.02
2019-02-17T14:49:55.863Z,19.85
2019-02-17T14:52:26.232Z,19.92
2019-02-17T14:54:55.832Z,19.69
2019-02-17T14:57:29.203Z,19.70
2019-02-17T15:00:00.337Z,19.57
2019-02-17T15:02:29.442Z,19.71
2019-02-17T15:04:58.927Z,19.56
2019-02-17T15:07:28.106Z,19.71
2019-02-17T15:09:57.222Z,19.56
2019-02-17T15:12:26.689Z,19.50
2019-02-17T15:14:56.292Z,19.39
2019-02-17T15:17:30.381Z,19.64
2019-02-17T15:19:59.494Z,19.68
2019-02-17T15:22:29.750Z,19.56
2019-02-17T15:25:00.423Z,19.51
2019-02-17T15:27:36.695Z,19.71
2019-02-17T15:30:12.556Z,19.66
2019-02-17T15:32:42.022Z,19.49
2019-02-17T15:35:15.550Z,19.63
2019-02-17T15:37:44.894Z,19.47
2019-02-17T15:40:19.167Z,19.42
2019-02-17T15:42:48.252Z,19.62
2019-02-17T15:45:17.741Z,19.84
2019-02-17T15:47:54.450Z,19.86
2019-02-17T15:50:29.524Z,20.02
2019-02-17T15:52:58.750Z,19.91
2019-02-17T15:55:28.036Z,19.46
2019-02-17T15:58:00.345Z,19.21
2019-02-17T16:00:32.839Z,19.02
2019-02-17T16:03:08.158Z,18.84
2019-02-17T16:05:40.618Z,18.47
2019-02-17T16:08:11.162Z,18.40
2019-02-17T16:10:40.707Z,18.34
2019-02-17T16:13:10.956Z,18.01
2019-02-17T16:15:40.165Z,18.18
2019-02-17T16:18:09.356Z,18.21
2019-02-17T16:20:40.936Z,18.25
2019-02-17T16:23:10.189Z,17.99
2019-02-17T16:25:40.384Z,17.89
2019-02-17T16:28:22.199Z,17.81
2019-02-17T16:30:52.615Z,17.81
2019-02-17T16:33:21.736Z,17.58
2019-02-17T16:35:58.329Z,17.38
2019-02-17T16:38:28.231Z,17.28
2019-02-17T16:41:02.120Z,17.04
2019-02-17T16:43:42.258Z,16.98
2019-02-17T16:46:17.502Z,16.99
2019-02-17T16:48:46.627Z,17.11
2019-02-17T16:51:16.108Z,17.06
2019-02-17T16:53:46.727Z,17.02
2019-02-17T16:56:15.850Z,16.94
2019-02-17T16:58:44.989Z,17.09
2019-02-17T17:01:15.042Z,17.09
2019-02-17T17:03:45.343Z,16.78
2019-02-17T17:06:16.827Z,16.83
2019-02-17T17:08:52.038Z,16.73
2019-02-17T17:11:21.240Z,16.77
2019-02-17T17:13:52.371Z,16.69
2019-02-17T17:16:21.857Z,16.64
2019-02-17T17:18:54.122Z,16.73
2019-02-17T17:21:26.375Z,16.68
2019-02-17T17:23:55.579Z,16.51
2019-02-17T17:26:26.449Z,16.51
2019-02-17T17:28:58.736Z,16.39
2019-02-17T17:31:27.903Z,16.27
2019-02-17T17:33:57.080Z,16.14
2019-02-17T17:36:27.550Z,15.89
2019-02-17T17:39:05.378Z,15.93
2019-02-17T17:41:37.040Z,15.90
2019-02-17T17:44:07.693Z,15.69
2019-02-17T17:46:38.987Z,15.71
2019-02-17T17:49:08.178Z,15.42
2019-02-17T17:51:37.654Z,15.35
2019-02-17T17:54:06.820Z,15.22
2019-02-17T17:56:38.366Z,15.31
2019-02-17T17:59:07.496Z,15.24
2019-02-17T18:01:36.668Z,15.20
2019-02-17T18:04:06.855Z,15.12
2019-02-17T18:06:38.921Z,14.96
2019-02-17T18:09:10.811Z,14.80
2019-02-17T18:11:40.145Z,14.71
2019-02-17T18:14:09.681Z,14.70
2019-02-17T18:16:39.816Z,14.52
2019-02-17T18:19:08.930Z,14.33
2019-02-17T18:21:38.020Z,14.27
2019-02-17T18:24:07.154Z,14.46
2019-02-17T18:26:39.580Z,14.25
2019-02-17T18:29:08.635Z,14.26
2019-02-17T18:31:38.623Z,14.26
2019-02-17T18:34:12.108Z,14.23
2019-02-17T18:36:41.321Z,14.20
2019-02-17T18:39:10.644Z,13.78
2019-02-17T18:41:42.567Z,13.23
2019-02-17T18:44:11.733Z,13.69
2019-02-17T18:46:42.074Z,13.00
2019-02-17T18:49:13.720Z,13.23
2019-02-17T18:51:42.844Z,12.98
2019-02-17T18:54:13.322Z,12.84
2019-02-17T18:56:44.925Z,11.86
2019-02-17T18:59:15.384Z,11.68
2019-02-17T19:01:44.453Z,11.46
2019-02-17T19:04:15.349Z,11.41
2019-02-17T19:06:53.973Z,11.40
2019-02-17T19:09:23.160Z,11.21
2019-02-17T19:11:53.518Z,11.12
2019-02-17T19:14:22.994Z,11.08
2019-02-17T19:16:52.397Z,10.86
2019-02-17T19:19:23.622Z,10.84
2019-02-17T19:21:52.595Z,10.94
2019-02-17T19:24:22.886Z,11.88
2019-02-17T19:26:54.322Z,12.54
2019-02-17T19:29:27.276Z,12.76
2019-02-17T19:32:00.638Z,12.42
2019-02-17T19:34:34.298Z,12.39
2019-02-17T19:37:00.850Z,12.45
2019-02-17T19:39:29.977Z,12.25
2019-02-17T19:42:00.082Z,12.03
2019-02-17T19:44:33.086Z,10.94
2019-02-17T19:47:03.430Z,10.41
2019-02-17T19:49:36.483Z,10.26
2019-02-17T19:52:09.361Z,10.20
2019-02-17T19:54:39.388Z,10.15
2019-02-17T19:57:08.844Z,9.89
2019-02-17T19:59:39.770Z,9.92
2019-02-17T20:02:13.531Z,9.86
2019-02-17T20:04:45.666Z,9.95
2019-02-17T20:07:16.522Z,9.65
2019-02-17T20:09:46.897Z,9.84
2019-02-17T20:12:16.064Z,-0.34
2019-02-17T20:14:48.234Z,9.52
2019-02-17T20:17:17.407Z,9.64
2019-02-17T20:19:48.429Z,9.87
2019-02-17T20:22:21.269Z,10.20
2019-02-17T20:24:51.967Z,9.79
2019-02-17T20:27:21.451Z,9.79
2019-02-17T20:29:51.672Z,0.92
2019-02-17T20:32:20.773Z,9.69
2019-02-17T20:34:52.402Z,9.75
2019-02-17T20:37:21.497Z,9.65
2019-02-17T20:39:50.652Z,9.39
2019-02-17T20:42:19.777Z,9.16
2019-02-17T20:44:53.853Z,9.22
2019-02-17T20:47:24.996Z,9.01
2019-02-17T20:50:00.496Z,8.86
2019-02-17T20:52:32.687Z,8.80
2019-02-17T20:55:01.861Z,8.91
2019-02-17T20:57:30.955Z,9.02
2019-02-17T21:00:01.629Z,9.07
2019-02-17T21:02:35.255Z,9.16
2019-02-17T21:05:06.296Z,9.11
2019-02-17T21:07:35.517Z,8.86
2019-02-17T21:10:07.176Z,8.96
2019-02-17T21:12:37.718Z,8.93
2019-02-17T21:15:08.720Z,8.93
2019-02-17T21:17:41.816Z,8.68
2019-02-17T21:20:12.449Z,8.56
2019-02-17T21:22:45.455Z,8.66
2019-02-17T21:25:18.158Z,8.77
2019-02-17T21:27:47.431Z,8.94
2019-02-17T21:30:21.037Z,8.71
2019-02-17T21:32:56.296Z,8.96
2019-02-17T21:35:30.947Z,8.93
2019-02-17T21:38:01.558Z,8.79
2019-02-17T21:40:33.958Z,8.99
2019-02-17T21:43:03.186Z,8.79
2019-02-17T21:45:34.624Z,8.77
2019-02-17T21:48:05.253Z,8.65
2019-02-17T21:50:35.677Z,8.60
2019-02-17T21:53:20.349Z,8.73
2019-02-17T21:55:49.410Z,8.61
2019-02-17T21:58:18.531Z,8.66
2019-02-17T22:00:47.633Z,8.54
2019-02-17T22:03:18.905Z,8.83
2019-02-17T22:05:47.987Z,9.15
2019-02-17T22:08:19.915Z,8.88
2019-02-17T22:10:49.243Z,8.98
2019-02-17T22:13:18.400Z,8.76
2019-02-17T22:15:47.837Z,9.14
2019-02-17T22:18:16.973Z,8.98
2019-02-17T22:20:47.595Z,9.13
2019-02-17T22:23:17.519Z,9.18
2019-02-17T22:25:49.231Z,9.17
2019-02-17T22:28:21.042Z,9.42
2019-02-17T22:30:57.122Z,9.23
2019-02-17T22:33:29.739Z,9.16
2019-02-17T22:36:00.195Z,9.49
2019-02-17T22:38:29.686Z,9.60
2019-02-17T22:40:58.786Z,9.89
2019-02-17T22:43:31.540Z,9.38
2019-02-17T22:46:00.697Z,9.21
2019-02-17T22:48:30.152Z,9.26
2019-02-17T22:51:03.691Z,9.07
2019-02-17T22:53:43.071Z,9.11
2019-02-17T22:56:04.002Z,9.28
2019-02-17T22:58:33.114Z,8.93
2019-02-17T23:01:04.457Z,9.09
2019-02-17T23:03:33.999Z,9.05
2019-02-17T23:06:10.742Z,9.21
2019-02-17T23:08:39.908Z,9.64
2019-02-17T23:11:16.663Z,9.90
2019-02-17T23:13:46.343Z,10.55
2019-02-17T23:16:15.467Z,10.83
2019-02-17T23:18:44.731Z,10.55
2019-02-17T23:21:16.770Z,10.83
2019-02-17T23:23:45.908Z,11.01
2019-02-17T23:26:16.109Z,11.01
2019-02-17T23:28:52.567Z,10.79
2019-02-17T23:31:21.717Z,10.90
2019-02-17T23:33:50.820Z,10.71
2019-02-17T23:36:20.320Z,10.40
2019-02-17T23:38:58.143Z,10.13
2019-02-17T23:41:22.911Z,10.19
2019-02-17T23:43:52.056Z,9.84
2019-02-17T23:46:21.160Z,9.98
2019-02-17T23:48:50.335Z,9.50
2019-02-17T23:51:19.465Z,9.59
2019-02-17T23:53:50.259Z,9.69
2019-02-17T23:56:19.597Z,9.59
2019-02-17T23:58:54.318Z,9.69
